Time;durP1;ratioP1;P1;durP2;ratioP2;P2;SDS_P1;SDS_P2;PMS_P1;PMS_P2;Temp;Humidity;BMP_temperature;BMP_pressure;BME280_temperature;BME280_humidity;BME280_pressure;Samples;Min_cycle;Max_cycle;Signal;HPM_P1;HPM_P2
2022/08/08 00:00:22;;;;;;;4.15;3.50;;;14.00;7.00;;;;;;5003995;28;20510;-62
2022/08/08 00:02:59;;;;;;;3.90;3.45;;;14.00;1.00;;;;;;4993794;28;20321;-63
2022/08/08 00:05:34;;;;;;;4.63;3.60;;;14.00;1.00;;;;;;5012009;28;20400;-62
2022/08/08 00:08:08;;;;;;;5.43;4.25;;;13.80;14.00;;;;;;5013109;28;20202;-62
2022/08/08 00:10:44;;;;;;;6.57;4.20;;;14.10;13.90;;;;;;5011329;28;20363;-62
2022/08/08 00:13:20;;;;;;;9.73;4.15;;;14.00;18.50;;;;;;5011214;28;20210;-62
2022/08/08 00:15:51;;;;;;;6.55;4.55;;;14.00;22.50;;;;;;5013173;28;20279;-62
2022/08/08 00:18:26;;;;;;;6.60;4.13;;;14.00;29.10;;;;;;4988452;28;20417;-62
2022/08/08 00:20:56;;;;;;;5.38;4.13;;;13.90;33.60;;;;;;5013289;28;20232;-62
2022/08/08 00:23:28;;;;;;;4.22;3.80;;;13.90;34.70;;;;;;5003682;28;20403;-62
2022/08/08 00:25:59;;;;;;;6.40;4.07;;;13.70;16.80;;;;;;5010578;28;20190;-62
2022/08/08 00:28:33;;;;;;;4.32;3.88;;;13.70;32.40;;;;;;5008850;28;20764;-62
2022/08/08 00:31:01;;;;;;;4.75;4.25;;;13.60;32.90;;;;;;5004369;28;20202;-62
2022/08/08 00:33:33;;;;;;;7.22;4.43;;;;;;;;;;4990266;28;20209;-62
2022/08/08 00:36:06;;;;;;;5.25;4.35;;;13.70;39.50;;;;;;5013154;28;20226;-62
2022/08/08 00:38:40;;;;;;;8.50;4.35;;;13.60;43.80;;;;;;5012031;28;20411;-62
2022/08/08 00:41:44;;;;;;;4.85;4.25;;;13.70;45.80;;;;;;5011505;28;20190;-62
2022/08/08 00:44:42;;;;;;;6.80;4.57;;;13.70;49.60;;;;;;5009702;28;20267;-62
2022/08/08 00:47:39;;;;;;;6.72;4.95;;;13.80;51.90;;;;;;4997051;28;20249;-62
2022/08/08 00:50:57;;;;;;;5.72;4.47;;;13.90;49.70;;;;;;5009570;28;20682;-62
2022/08/08 00:53:47;;;;;;;5.43;4.47;;;13.90;48.50;;;;;;5004365;28;20381;-62
2022/08/08 00:56:51;;;;;;;6.22;4.72;;;13.80;42.10;;;;;;5007976;28;20560;-62
2022/08/08 00:59:49;;;;;;;6.93;4.30;;;13.80;46.20;;;;;;4999162;28;20198;-62
2022/08/08 01:02:50;;;;;;;6.35;4.90;;;13.90;44.40;;;;;;5008854;28;20194;-62
2022/08/08 01:06:07;;;;;;;6.10;4.47;;;13.90;47.70;;;;;;4988305;28;20307;-62
2022/08/08 01:09:03;;;;;;;4.13;3.72;;;13.80;41.70;;;;;;5010100;28;20680;-62
2022/08/08 01:11:59;;;;;;;5.65;3.92;;;13.60;28.80;;;;;;5009279;28;20731;-62
2022/08/08 01:15:02;;;;;;;4.38;3.85;;;13.60;16.40;;;;;;5006582;28;20237;-62
2022/08/08 01:17:41;;;;;;;4.63;3.67;;;13.40;16.50;;;;;;5005665;28;20446;-62
2022/08/08 01:20:39;;;;;;;5.40;3.63;;;13.40;21.20;;;;;;4988668;28;20217;-62
2022/08/08 01:23:43;;;;;;;5.97;3.83;;;13.40;30.70;;;;;;4968763;28;20236;-62
2022/08/08 01:26:51;;;;;;;4.32;3.40;;;13.30;22.70;;;;;;5008160;28;20202;-62
2022/08/08 01:29:38;;;;;;;3.90;3.08;;;13.30;23.20;;;;;;5001568;28;20202;-62
2022/08/08 01:32:51;;;;;;;3.80;3.10;;;13.20;18.80;;;;;;5010956;28;20222;-62
2022/08/08 01:35:47;;;;;;;4.72;3.20;;;13.10;21.00;;;;;;4988894;28;20969;-62
2022/08/08 01:38:37;;;;;;;3.88;3.22;;;13.10;24.00;;;;;;5002261;28;20734;-62
2022/08/08 01:41:12;;;;;;;3.60;3.30;;;13.10;32.80;;;;;;5014823;28;20772;-62
2022/08/08 01:43:58;;;;;;;5.95;3.60;;;12.90;43.40;;;;;;5012820;28;20751;-63
2022/08/08 01:46:40;;;;;;;4.25;3.45;;;13.10;41.30;;;;;;5011949;28;20456;-62
2022/08/08 01:49:17;;;;;;;4.55;3.58;;;13.10;44.70;;;;;;5014704;28;20249;-62
2022/08/08 01:51:59;;;;;;;7.97;4.35;;;13.10;46.40;;;;;;4993422;28;20202;-62
2022/08/08 01:54:43;;;;;;;4.53;3.50;;;13.20;45.50;;;;;;5012827;28;20197;-62
2022/08/08 01:57:24;;;;;;;4.20;3.55;;;13.20;44.30;;;;;;5011105;28;20217;-62
2022/08/08 02:00:12;;;;;;;6.28;4.05;;;13.20;57.30;;;;;;5012004;28;20209;-62
2022/08/08 02:03:06;;;;;;;5.97;4.07;;;13.30;57.00;;;;;;5011921;28;20571;-62
2022/08/08 02:05:45;;;;;;;5.30;4.80;;;13.30;58.80;;;;;;4996069;28;20510;-62
2022/08/08 02:08:20;;;;;;;6.47;4.68;;;13.20;62.20;;;;;;5012600;28;20198;-62
2022/08/08 02:10:59;;;;;;;7.28;4.57;;;13.30;59.20;;;;;;5013628;28;20212;-62
2022/08/08 02:13:36;;;;;;;5.75;4.32;;;13.30;58.10;;;;;;5012986;28;20875;-62
2022/08/08 02:16:10;;;;;;;5.97;4.78;;;13.30;59.50;;;;;;5011951;28;20351;-62
2022/08/08 02:18:43;;;;;;;5.88;4.78;;;13.30;58.90;;;;;;5012662;28;20221;-62
2022/08/08 02:24:12;;;;;;;6.07;5.03;;;13.40;69.70;;;;;;5007926;28;21112;-62
2022/08/08 02:26:48;;;;;;;5.55;4.35;;;13.40;66.80;;;;;;5012303;28;20202;-62
2022/08/08 02:29:35;;;;;;;6.57;3.78;;;13.30;54.70;;;;;;5004521;28;20194;-62
2022/08/08 02:32:50;;;;;;;5.28;3.80;;;13.20;45.50;;;;;;5011820;28;20555;-62
2022/08/08 02:35:51;;;;;;;6.38;3.85;;;13.10;46.20;;;;;;4949879;28;20602;-62
2022/08/08 02:38:49;;;;;;;4.22;3.65;;;13.10;50.80;;;;;;4942628;28;20320;-62
2022/08/08 02:41:50;;;;;;;5.25;4.00;;;13.00;49.60;;;;;;4995879;28;20205;-62
2022/08/08 02:44:58;;;;;;;8.13;4.75;;;12.90;56.50;;;;;;4971768;28;20404;-62
2022/08/08 02:48:07;;;;;;;5.97;4.03;;;13.00;56.70;;;;;;4998544;28;20495;-62
2022/08/08 02:50:57;;;;;;;4.28;3.75;;;12.50;65.10;;;;;;5011064;28;20209;-62
2022/08/08 02:53:49;;;;;;;8.13;4.20;;;12.90;61.00;;;;;;4992935;28;20683;-62
2022/08/08 02:56:47;;;;;;;5.40;4.55;;;12.80;62.80;;;;;;5008797;28;20734;-62
2022/08/08 03:00:09;;;;;;;4.50;4.10;;;12.90;65.90;;;;;;5010269;28;20573;-62
2022/08/08 03:03:25;;;;;;;5.03;4.35;;;12.90;69.90;;;;;;5009192;28;20285;-62
2022/08/08 03:06:36;;;;;;;6.20;4.38;;;12.90;71.10;;;;;;5011820;28;20649;-62
2022/08/08 03:09:42;;;;;;;5.78;4.38;;;12.90;71.60;;;;;;5013245;28;20205;-62
2022/08/08 03:12:35;;;;;;;6.35;4.72;;;12.90;71.40;;;;;;4993491;28;20960;-61
2022/08/08 03:15:25;;;;;;;6.68;4.30;;;12.90;74.20;;;;;;5013575;28;20198;-62
2022/08/08 03:17:57;;;;;;;5.15;4.10;;;11.90;71.30;;;;;;5013844;28;20230;-62
2022/08/08 03:20:23;;;;;;;4.60;4.05;;;13.60;74.80;;;;;;5006360;28;20424;-62
2022/08/08 03:22:54;;;;;;;6.32;4.50;;;12.70;71.80;;;;;;4993596;28;20288;-62
2022/08/08 03:25:25;;;;;;;4.30;3.78;;;12.70;72.40;;;;;;5005047;28;20483;-62
2022/08/08 03:27:57;;;;;;;7.55;4.88;;;12.70;78.00;;;;;;5012973;28;20195;-62
2022/08/08 03:30:24;;;;;;;12.45;4.60;;;12.70;79.80;;;;;;5002833;28;21027;-62
2022/08/08 03:35:41;;;;;;;6.57;4.88;;;12.90;82.70;;;;;;5007634;28;20225;-62
2022/08/08 03:38:09;;;;;;;5.32;4.22;;;12.70;79.60;;;;;;4992719;28;20217;-62
2022/08/08 03:40:36;;;;;;;5.97;4.00;;;12.70;82.20;;;;;;5006868;28;20217;-62
2022/08/08 03:43:04;;;;;;;5.50;4.45;;;12.70;80.40;;;;;;5013771;28;20285;-62
2022/08/08 03:45:31;;;;;;;4.22;3.83;;;12.70;83.00;;;;;;5005782;28;20225;-62
2022/08/08 03:48:01;;;;;;;4.55;4.15;;;12.70;82.50;;;;;;5012064;28;20770;-62
2022/08/08 03:50:29;;;;;;;5.55;4.53;;;12.70;78.30;;;;;;5016025;28;20194;-62
2022/08/08 03:52:56;;;;;;;7.65;4.47;;;12.50;82.50;;;;;;4992567;28;20284;-62
2022/08/08 03:55:25;;;;;;;6.80;4.55;;;12.70;81.20;;;;;;5011363;28;20225;-62
2022/08/08 03:57:54;;;;;;;4.68;3.53;;;12.70;80.50;;;;;;5012235;28;20198;-62
2022/08/08 04:00:24;;;;;;;4.63;3.83;;;12.70;76.70;;;;;;5012853;28;20202;-62
2022/08/08 04:02:55;;;;;;;3.70;3.30;;;12.60;73.00;;;;;;5006449;28;20412;-62
2022/08/08 04:05:24;;;;;;;7.88;3.65;;;12.50;64.90;;;;;;5012895;28;21555;-62
2022/08/08 04:07:51;;;;;;;3.65;3.20;;;12.50;64.60;;;;;;5011737;28;20415;-62
2022/08/08 04:10:17;;;;;;;6.75;3.20;;;12.40;62.10;;;;;;4995025;28;20209;-62
2022/08/08 04:12:46;;;;;;;2.85;2.45;;;12.40;63.50;;;;;;5009243;28;20490;-62
2022/08/08 04:15:13;;;;;;;6.22;3.17;;;12.40;62.10;;;;;;5013890;28;20194;-62
2022/08/08 04:17:39;;;;;;;4.28;3.08;;;12.30;59.30;;;;;;5009648;28;20225;-62
2022/08/08 04:20:07;;;;;;;3.67;3.08;;;12.30;58.20;;;;;;5012267;28;20202;-62
2022/08/08 04:22:34;;;;;;;5.32;3.28;;;12.30;58.80;;;;;;5006406;28;20198;-62
2022/08/08 04:25:01;;;;;;;4.63;2.92;;;12.30;58.40;;;;;;4985258;28;20213;-62
2022/08/08 04:27:28;;;;;;;4.88;3.63;;;12.20;58.70;;;;;;5011815;28;20201;-62
2022/08/08 04:29:56;;;;;;;3.67;3.17;;;12.20;66.30;;;;;;5012877;28;20225;-62
2022/08/08 04:32:23;;;;;;;6.50;3.60;;;12.50;76.70;;;;;;5007930;28;20194;-61
2022/08/08 04:34:50;;;;;;;4.45;3.65;;;;;;;;;;5011897;28;20312;-62
2022/08/08 04:37:17;;;;;;;4.75;3.30;;;12.40;74.10;;;;;;5013714;28;20695;-62
2022/08/08 04:39:44;;;;;;;5.75;3.75;;;12.40;74.40;;;;;;5004912;28;20749;-62
2022/08/08 04:42:11;;;;;;;3.80;3.40;;;12.40;70.50;;;;;;4992535;28;20681;-62
2022/08/08 04:44:37;;;;;;;6.82;3.90;;;12.40;70.90;;;;;;5003305;28;20305;-62
2022/08/08 04:47:06;;;;;;;3.83;3.22;;;12.40;73.40;;;;;;5013344;28;20221;-62
2022/08/08 04:49:34;;;;;;;3.00;2.70;;;12.40;72.90;;;;;;5004997;28;20202;-62
2022/08/08 04:52:00;;;;;;;7.38;2.97;;;12.30;73.20;;;;;;5010815;28;20699;-62
2022/08/08 04:54:27;;;;;;;3.72;2.95;;;12.40;73.80;;;;;;5005463;28;20205;-62
2022/08/08 04:56:54;;;;;;;6.60;3.72;;;12.40;68.70;;;;;;4990531;28;20415;-62
2022/08/08 04:59:21;;;;;;;6.40;4.22;;;12.30;66.30;;;;;;5008757;28;20209;-62
2022/08/08 05:01:48;;;;;;;5.53;4.07;;;12.30;67.80;;;;;;5010139;28;20490;-62
2022/08/08 05:04:16;;;;;;;5.72;4.70;;;12.40;75.10;;;;;;5012929;28;20198;-62
2022/08/08 05:06:44;;;;;;;5.97;4.20;;;12.40;74.40;;;;;;5009335;28;20805;-62
2022/08/08 05:09:10;;;;;;;6.47;4.63;;;12.40;76.40;;;;;;5016985;28;20838;-62
2022/08/08 05:11:37;;;;;;;5.80;3.85;;;12.40;75.00;;;;;;4994293;28;20711;-62
2022/08/08 05:14:04;;;;;;;4.70;3.70;;;12.40;78.80;;;;;;5016652;28;20190;-62
2022/08/08 05:16:31;;;;;;;4.32;3.80;;;12.50;81.80;;;;;;5014914;28;20225;-62
2022/08/08 05:18:58;;;;;;;9.02;5.95;;;12.60;82.70;;;;;;5014180;28;20237;-62
2022/08/08 05:21:26;;;;;;;13.60;7.68;;;12.70;85.10;;;;;;5013527;28;20201;-62
2022/08/08 05:23:53;;;;;;;10.95;7.72;;;13.00;90.20;;;;;;5006213;28;20754;-62
2022/08/08 05:26:21;;;;;;;9.88;6.80;;;12.80;90.00;;;;;;5010451;28;20202;-62
2022/08/08 05:28:48;;;;;;;10.52;7.70;;;12.80;88.50;;;;;;4991249;28;20202;-62
2022/08/08 05:31:14;;;;;;;10.40;7.53;;;12.90;90.40;;;;;;5014285;28;20198;-62
2022/08/08 05:33:41;;;;;;;12.65;8.23;;;13.00;91.80;;;;;;5007128;28;20229;-62
2022/08/08 05:36:10;;;;;;;11.77;6.82;;;13.10;92.90;;;;;;5012921;28;20214;-62
2022/08/08 05:38:46;;;;;;;9.32;7.65;;;13.20;94.00;;;;;;5011240;28;20958;-62
2022/08/08 05:41:16;;;;;;;10.38;7.38;;;13.30;95.10;;;;;;5015242;28;20208;-62
2022/08/08 05:43:46;;;;;;;10.90;7.85;;;13.40;95.60;;;;;;4993484;28;20229;-62
2022/08/08 05:46:15;;;;;;;10.30;7.97;;;13.50;96.40;;;;;;5014317;28;20636;-62
2022/08/08 05:48:42;;;;;;;8.68;7.05;;;16.70;99.20;;;;;;5011907;28;20505;-62
2022/08/08 05:51:09;;;;;;;11.88;7.60;;;13.80;96.90;;;;;;5015871;28;20634;-62
2022/08/08 05:53:38;;;;;;;13.45;7.80;;;13.90;96.80;;;;;;5006994;28;20209;-62
2022/08/08 05:56:08;;;;;;;12.15;7.35;;;14.00;96.80;;;;;;5016255;28;20210;-62
2022/08/08 05:58:34;;;;;;;9.27;6.85;;;14.20;99.10;;;;;;4985963;28;20260;-62
2022/08/08 06:01:02;;;;;;;9.95;7.38;;;13.30;97.10;;;;;;5012687;28;20574;-62
2022/08/08 06:03:30;;;;;;;9.00;7.50;;;14.40;99.80;;;;;;5013167;28;20225;-62
2022/08/08 06:05:59;;;;;;;10.68;7.85;;;14.40;99.90;;;;;;5010448;28;20870;-62
2022/08/08 06:08:28;;;;;;;14.40;7.53;;;14.60;99.90;;;;;;5013276;28;20531;-62
2022/08/08 06:10:58;;;;;;;8.48;7.18;;;14.70;99.90;;;;;;5011982;28;20202;-62
2022/08/08 06:13:27;;;;;;;8.32;7.10;;;;;;;;;;5009090;28;20229;-63
2022/08/08 06:15:55;;;;;;;8.75;6.80;;;14.80;99.90;;;;;;5005537;28;20288;-62
2022/08/08 06:18:24;;;;;;;15.25;6.63;;;13.80;99.90;;;;;;5009338;28;20237;-62
2022/08/08 06:20:53;;;;;;;8.93;7.07;;;15.00;99.90;;;;;;5011302;28;20203;-63
2022/08/08 06:23:20;;;;;;;8.52;7.22;;;15.40;99.90;;;;;;5006001;28;20203;-62
2022/08/08 06:25:55;;;;;;;9.60;7.22;;;15.20;99.90;;;;;;5010094;28;20209;-62
2022/08/08 06:28:30;;;;;;;11.02;8.10;;;15.40;99.90;;;;;;5013722;28;20205;-62
2022/08/08 06:31:00;;;;;;;10.32;7.00;;;15.50;99.90;;;;;;4994398;28;20544;-63
2022/08/08 06:33:36;;;;;;;11.07;7.03;;;15.60;99.90;;;;;;5012216;28;20190;-62
2022/08/08 06:36:04;;;;;;;10.02;7.40;;;15.70;99.90;;;;;;5014577;28;20198;-62
2022/08/08 06:38:37;;;;;;;11.65;7.28;;;15.90;99.90;;;;;;5010457;28;20203;-62
2022/08/08 06:41:07;;;;;;;10.98;6.78;;;16.20;99.90;;;;;;5014321;28;20609;-62
2022/08/08 06:43:37;;;;;;;9.00;6.95;;;16.00;99.90;;;;;;5010868;28;20194;-62
2022/08/08 06:46:05;;;;;;;11.02;6.15;;;16.10;99.90;;;;;;4996928;28;20242;-62
2022/08/08 06:48:32;;;;;;;7.50;5.90;;;16.30;99.90;;;;;;5011242;28;20199;-62
2022/08/08 06:50:59;;;;;;;7.88;5.80;;;16.30;99.90;;;;;;5013232;28;20195;-62
2022/08/08 06:53:26;;;;;;;7.20;4.63;;;16.20;99.90;;;;;;5005111;28;20735;-62
2022/08/08 06:55:54;;;;;;;5.45;4.63;;;16.40;99.90;;;;;;5008285;28;20657;-62
2022/08/08 06:58:21;;;;;;;8.45;5.15;;;16.50;99.90;;;;;;5012941;28;20703;-62
2022/08/08 07:00:51;;;;;;;6.68;4.10;;;16.50;99.90;;;;;;4984706;28;21502;-63
2022/08/08 07:03:26;;;;;;;5.07;3.70;;;16.50;99.90;;;;;;5014676;28;20201;-62
2022/08/08 07:05:55;;;;;;;6.15;4.50;;;16.50;99.90;;;;;;5012056;28;20205;-63
2022/08/08 07:08:29;;;;;;;6.00;3.88;;;16.50;99.90;;;;;;5010747;28;20194;-62
2022/08/08 07:11:01;;;;;;;7.15;4.30;;;16.50;99.90;;;;;;5012381;28;20556;-62
2022/08/08 07:13:32;;;;;;;7.43;3.47;;;16.60;99.90;;;;;;5010327;28;20559;-62
2022/08/08 07:16:05;;;;;;;5.82;3.38;;;16.60;99.90;;;;;;4986146;28;20233;-63
2022/08/08 07:18:40;;;;;;;4.22;2.80;;;16.70;99.90;;;;;;5010414;28;20245;-62
2022/08/08 07:21:08;;;;;;;3.72;3.10;;;16.70;99.90;;;;;;5013424;28;20539;-62
2022/08/08 07:23:41;;;;;;;5.10;3.45;;;16.80;99.90;;;;;;5007655;28;20202;-62
2022/08/08 07:26:10;;;;;;;4.93;2.83;;;16.80;99.70;;;;;;5014015;28;20518;-63
2022/08/08 07:28:37;;;;;;;4.57;2.22;;;16.80;97.60;;;;;;5010105;28;20198;-62
2022/08/08 07:31:06;;;;;;;5.18;2.38;;;16.90;91.20;;;;;;5005136;28;20202;-63
2022/08/08 07:33:33;;;;;;;5.13;2.22;;;16.90;90.00;;;;;;4989012;28;20520;-62
2022/08/08 07:36:04;;;;;;;4.18;2.00;;;16.80;84.80;;;;;;5014070;28;20206;-62
2022/08/08 07:38:32;;;;;;;2.90;2.20;;;17.10;86.60;;;;;;5010393;28;20269;-62
2022/08/08 07:40:59;;;;;;;4.68;1.85;;;17.10;99.90;;;;;;5013796;28;20205;-62
2022/08/08 07:43:26;;;;;;;5.25;2.00;;;17.00;99.90;;;;;;5011193;28;20198;-63
2022/08/08 07:45:53;;;;;;;2.47;1.52;;;17.00;99.90;;;;;;5003808;28;20447;-63
2022/08/08 07:48:21;;;;;;;7.22;2.38;;;17.20;99.90;;;;;;4995211;28;20217;-63
2022/08/08 07:50:50;;;;;;;4.93;1.90;;;17.10;99.90;;;;;;5009395;28;20198;-62
2022/08/08 07:53:24;;;;;;;6.50;2.22;;;17.30;99.90;;;;;;5012318;28;20212;-63
2022/08/08 07:55:53;;;;;;;3.95;1.92;;;17.50;99.90;;;;;;5009547;28;20413;-62
2022/08/08 07:58:31;;;;;;;2.60;1.90;;;17.80;99.90;;;;;;5013913;28;20595;-62
2022/08/08 08:01:04;;;;;;;8.93;2.50;;;17.70;99.90;;;;;;5013410;28;20897;-62
2022/08/08 08:03:36;;;;;;;6.80;2.15;;;18.00;99.90;;;;;;4997186;28;20198;-63
2022/08/08 08:06:05;;;;;;;5.07;2.30;;;17.90;99.90;;;;;;5013832;28;20193;-62
2022/08/08 08:08:37;;;;;;;6.05;2.67;;;17.90;99.90;;;;;;5009604;28;20209;-63
2022/08/08 08:11:08;;;;;;;6.78;2.10;;;17.70;99.90;;;;;;5011333;28;20209;-63
2022/08/08 08:13:36;;;;;;;5.70;2.50;;;17.90;99.90;;;;;;5009770;28;20281;-62
2022/08/08 08:16:06;;;;;;;5.95;2.03;;;17.90;99.90;;;;;;5011539;28;20198;-63
2022/08/08 08:18:42;;;;;;;4.05;2.10;;;18.00;99.90;;;;;;5010769;28;20237;-62
2022/08/08 08:21:09;;;;;;;7.85;1.80;;;18.00;99.90;;;;;;4993883;28;20216;-62
2022/08/08 08:23:35;;;;;;;4.70;2.05;;;18.00;99.90;;;;;;5004822;28;20206;-62
2022/08/08 08:26:03;;;;;;;6.53;2.38;;;17.80;99.90;;;;;;5010259;28;20202;-62
2022/08/08 08:28:30;;;;;;;3.00;1.90;;;;;;;;;;5008375;28;20205;-62
2022/08/08 08:31:01;;;;;;;4.57;2.10;;;18.10;99.90;;;;;;5006095;28;20809;-62
2022/08/08 08:33:28;;;;;;;5.55;2.00;;;18.10;99.90;;;;;;5011166;28;20194;-62
2022/08/08 08:35:56;;;;;;;4.13;1.90;;;18.00;99.90;;;;;;4991765;28;20214;-63
2022/08/08 08:38:23;;;;;;;3.75;2.00;;;18.10;99.90;;;;;;5009586;28;20583;-62
2022/08/08 08:40:51;;;;;;;10.43;1.90;;;18.10;99.90;;;;;;5012347;28;20435;-63
2022/08/08 08:43:19;;;;;;;4.38;1.98;;;18.20;99.90;;;;;;5012820;28;20570;-62
2022/08/08 08:45:47;;;;;;;5.30;2.03;;;18.10;99.90;;;;;;5015544;28;20222;-62
2022/08/08 08:48:17;;;;;;;6.00;2.63;;;18.10;99.90;;;;;;5017291;28;20202;-63
2022/08/08 08:50:45;;;;;;;5.55;2.20;;;17.90;99.90;;;;;;4987215;28;20966;-63
2022/08/08 08:53:14;;;;;;;4.63;2.15;;;18.10;99.90;;;;;;5007044;28;20202;-63
2022/08/08 08:55:41;;;;;;;6.95;1.98;;;18.20;99.90;;;;;;5011659;28;20339;-62
2022/08/08 08:58:19;;;;;;;7.45;2.42;;;18.30;99.90;;;;;;5003647;28;20226;-63
2022/08/08 09:00:46;;;;;;;3.00;1.83;;;18.30;99.90;;;;;;5010382;28;20236;-63
2022/08/08 09:03:14;;;;;;;7.95;2.20;;;18.30;99.90;;;;;;5017679;28;20203;-62
2022/08/08 09:05:43;;;;;;;6.15;2.35;;;18.70;99.90;;;;;;4993433;28;21641;-63
2022/08/08 09:08:12;;;;;;;6.32;2.17;;;18.40;99.90;;;;;;5016191;28;20200;-63
2022/08/08 09:10:40;;;;;;;4.10;1.80;;;18.40;99.90;;;;;;5008770;28;20415;-62
2022/08/08 09:13:09;;;;;;;3.92;1.67;;;18.70;99.90;;;;;;5010406;28;20201;-62
2022/08/08 09:15:36;;;;;;;4.25;1.55;;;18.40;99.90;;;;;;5005091;28;20202;-62
2022/08/08 09:18:03;;;;;;;5.32;2.28;;;18.60;99.90;;;;;;5009819;28;20238;-62
2022/08/08 09:20:32;;;;;;;7.07;1.95;;;18.40;99.90;;;;;;5012981;28;20448;-63
2022/08/08 09:23:01;;;;;;;3.17;2.22;;;18.50;99.90;;;;;;4996754;28;20203;-63
2022/08/08 09:25:27;;;;;;;4.88;2.10;;;18.50;99.90;;;;;;5012874;28;20207;-62
2022/08/08 09:27:57;;;;;;;12.57;1.58;;;18.70;99.90;;;;;;5014974;28;20534;-62
2022/08/08 09:30:26;;;;;;;5.40;1.70;;;18.20;99.90;;;;;;5000747;28;20198;-62
2022/08/08 09:32:55;;;;;;;6.50;1.65;;;18.70;99.90;;;;;;5013917;28;20482;-62
2022/08/08 09:35:27;;;;;;;3.97;1.83;;;18.80;99.90;;;;;;5015295;28;20311;-63
2022/08/08 09:38:00;;;;;;;7.00;1.80;;;18.90;99.90;;;;;;4993278;28;22166;-63
2022/08/08 09:40:28;;;;;;;3.75;1.70;;;19.30;99.90;;;;;;5012683;28;20202;-62
2022/08/08 09:43:08;;;;;;;3.13;1.27;;;19.20;99.90;;;;;;5012684;28;20198;-63
2022/08/08 09:45:44;;;;;;;4.28;1.58;;;19.30;99.90;;;;;;5010554;28;20306;-63
2022/08/08 09:48:23;;;;;;;2.10;1.60;;;19.40;99.90;;;;;;5015506;28;20194;-63
2022/08/08 09:50:51;;;;;;;6.18;1.90;;;19.40;99.90;;;;;;5009060;28;20229;-63
2022/08/08 09:53:20;;;;;;;2.58;1.50;;;19.40;99.90;;;;;;4994175;28;20217;-62
2022/08/08 09:55:47;;;;;;;4.57;2.03;;;19.50;99.90;;;;;;5009946;28;20202;-63
2022/08/08 09:58:18;;;;;;;3.92;1.88;;;19.50;99.90;;;;;;5016185;28;20293;-63
2022/08/08 10:00:48;;;;;;;4.50;2.33;;;19.40;99.90;;;;;;5002965;28;20605;-63
2022/08/08 10:03:17;;;;;;;2.78;1.40;;;19.30;99.90;;;;;;5015825;28;20250;-63
2022/08/08 10:05:45;;;;;;;5.55;1.40;;;19.30;99.90;;;;;;5011595;28;20696;-63
2022/08/08 10:08:12;;;;;;;4.90;1.88;;;19.10;99.90;;;;;;5011892;28;20992;-63
2022/08/08 10:10:40;;;;;;;5.38;1.55;;;19.10;99.90;;;;;;4990241;28;20206;-63
2022/08/08 10:13:18;;;;;;;2.03;1.60;;;19.10;99.90;;;;;;5014735;28;20325;-63
2022/08/08 10:15:47;;;;;;;2.63;1.30;;;19.40;99.90;;;;;;5002514;28;20533;-63
2022/08/08 10:18:23;;;;;;;5.53;2.00;;;19.50;99.90;;;;;;5013735;28;20287;-62
2022/08/08 10:20:52;;;;;;;3.88;1.50;;;19.60;99.90;;;;;;5010034;28;20193;-63
2022/08/08 10:23:36;;;;;;;8.70;1.70;;;19.90;99.90;;;;;;5013892;28;20209;-62
2022/08/08 10:26:04;;;;;;;4.72;1.73;;;19.80;99.90;;;;;;4995468;28;20977;-63
2022/08/08 10:28:36;;;;;;;5.55;1.63;;;20.00;99.90;;;;;;5011781;28;20205;-62
2022/08/08 10:32:30;;;;;;;3.90;1.55;;;20.00;99.90;;;;;;5005458;28;20781;-63
2022/08/08 10:33:53;;;;;;;6.85;2.15;;;20.00;99.90;;;;;;5010951;28;20370;-63
2022/08/08 10:36:24;;;;;;;3.28;1.80;;;20.00;99.90;;;;;;5012563;28;20205;-62
2022/08/08 10:38:52;;;;;;;3.03;1.63;;;20.00;99.90;;;;;;5008520;28;20784;-62
2022/08/08 10:41:24;;;;;;;10.95;2.35;;;19.90;99.90;;;;;;4993064;28;20210;-62
2022/08/08 10:43:53;;;;;;;6.80;3.05;;;19.80;99.90;;;;;;5011431;28;20438;-62
2022/08/08 10:46:26;;;;;;;5.40;1.73;;;19.90;99.90;;;;;;5005639;28;20709;-62
2022/08/08 10:48:53;;;;;;;5.00;1.48;;;19.90;99.90;;;;;;5011924;28;20279;-62
2022/08/08 10:51:20;;;;;;;2.83;1.50;;;19.90;99.90;;;;;;5011399;28;20684;-64
2022/08/08 10:53:49;;;;;;;2.78;1.23;;;20.00;99.90;;;;;;5007629;28;20212;-63
2022/08/08 10:56:16;;;;;;;2.83;1.38;;;20.10;99.90;;;;;;4989730;28;20218;-63
2022/08/08 10:58:43;;;;;;;2.60;1.30;;;20.10;99.90;;;;;;5008090;28;20276;-62
2022/08/08 11:01:11;;;;;;;1.73;1.30;;;20.10;99.90;;;;;;5014219;28;20210;-62
2022/08/08 11:03:42;;;;;;;2.20;1.15;;;20.30;99.90;;;;;;5001123;28;20198;-63
2022/08/08 11:06:10;;;;;;;3.28;1.50;;;20.30;99.90;;;;;;5012864;28;20633;-62
2022/08/08 11:08:38;;;;;;;4.40;1.67;;;20.40;99.90;;;;;;5010182;28;20244;-62
2022/08/08 11:11:06;;;;;;;3.20;1.38;;;20.40;99.90;;;;;;5013308;28;20197;-63
2022/08/08 11:13:40;;;;;;;3.05;1.20;;;20.50;99.90;;;;;;4990095;28;20233;-63
2022/08/08 11:16:07;;;;;;;2.88;1.30;;;20.20;99.90;;;;;;5012932;28;20198;-62
2022/08/08 11:18:37;;;;;;;3.25;1.58;;;20.40;99.90;;;;;;5010295;28;20237;-62
2022/08/08 11:21:06;;;;;;;2.55;1.27;;;20.10;99.90;;;;;;5013427;28;20206;-62
2022/08/08 11:23:33;;;;;;;3.38;1.20;;;20.20;99.90;;;;;;5003854;28;20205;-62
2022/08/08 11:26:03;;;;;;;1.65;1.23;;;20.10;99.90;;;;;;5014228;28;20205;-62
2022/08/08 11:28:34;;;;;;;2.08;1.17;;;20.20;99.90;;;;;;4984666;28;20210;-62
2022/08/08 11:31:03;;;;;;;1.48;1.10;;;20.50;99.90;;;;;;5012361;28;20198;-62
2022/08/08 11:33:32;;;;;;;1.45;1.10;;;20.20;99.90;;;;;;5012929;28;20210;-63
2022/08/08 11:36:01;;;;;;;2.25;1.10;;;20.20;99.90;;;;;;5015114;28;20600;-63
2022/08/08 11:38:27;;;;;;;1.65;0.88;;;20.20;99.90;;;;;;5013018;28;20606;-62
2022/08/08 11:40:55;;;;;;;1.77;1.25;;;19.00;99.90;;;;;;5012944;28;20413;-62
2022/08/08 11:43:24;;;;;;;3.83;1.20;;;20.10;99.90;;;;;;4992193;28;20202;-63
2022/08/08 11:45:53;;;;;;;2.30;1.23;;;20.10;99.90;;;;;;5003707;28;20288;-63
2022/08/08 11:48:20;;;;;;;5.50;1.10;;;20.10;99.90;;;;;;5014806;28;20198;-62
2022/08/08 11:50:50;;;;;;;2.58;1.30;;;20.10;99.90;;;;;;5012803;28;20698;-62
2022/08/08 11:53:20;;;;;;;4.63;1.17;;;20.10;99.90;;;;;;5013763;28;20419;-63
2022/08/08 11:55:47;;;;;;;1.38;1.20;;;20.00;99.90;;;;;;5010854;28;20205;-62
2022/08/08 11:58:14;;;;;;;2.03;1.35;;;20.00;99.90;;;;;;4988469;28;20360;-63
2022/08/08 12:00:44;;;;;;;2.42;1.42;;;19.90;99.90;;;;;;5011871;28;20202;-63
2022/08/08 12:03:16;;;;;;;1.38;1.27;;;20.50;99.90;;;;;;5012511;28;20295;-63
2022/08/08 12:05:44;;;;;;;1.95;1.10;;;19.90;99.90;;;;;;5010560;28;20202;-62
2022/08/08 12:08:11;;;;;;;1.42;1.00;;;19.90;99.90;;;;;;5009430;28;20549;-62
2022/08/08 12:10:48;;;;;;;1.40;1.23;;;19.80;99.90;;;;;;5008724;28;20191;-63
2022/08/08 12:13:21;;;;;;;1.88;1.10;;;19.90;99.90;;;;;;4989488;28;20228;-63
2022/08/08 12:15:48;;;;;;;2.80;1.15;;;19.90;99.90;;;;;;5009131;28;20190;-63
2022/08/08 12:18:16;;;;;;;1.48;1.00;;;19.80;99.90;;;;;;5012320;28;20492;-62
2022/08/08 12:20:43;;;;;;;4.30;1.30;;;19.90;99.90;;;;;;5013070;28;20220;-62
2022/08/08 12:23:10;;;;;;;3.03;1.00;;;19.90;99.90;;;;;;5008979;28;20202;-62
2022/08/08 12:25:37;;;;;;;2.88;1.30;;;19.90;99.90;;;;;;5012545;28;20573;-63
2022/08/08 12:28:11;;;;;;;1.10;1.00;;;20.00;99.90;;;;;;4990035;28;20302;-62
2022/08/08 12:30:39;;;;;;;1.08;0.98;;;20.10;99.90;;;;;;5012278;28;20193;-63
2022/08/08 12:33:16;;;;;;;4.38;1.10;;;19.90;99.90;;;;;;5007692;28;20474;-63
2022/08/08 12:35:43;;;;;;;1.27;0.80;;;19.90;99.90;;;;;;5013744;28;20190;-62
2022/08/08 12:38:11;;;;;;;2.33;1.17;;;19.90;99.90;;;;;;5006646;28;20904;-63
2022/08/08 12:40:41;;;;;;;1.80;1.08;;;19.90;99.90;;;;;;5013152;28;20198;-62
2022/08/08 12:43:10;;;;;;;6.90;1.13;;;19.90;99.90;;;;;;5009591;28;20465;-63
2022/08/08 12:45:38;;;;;;;2.75;1.02;;;20.00;99.90;;;;;;4994393;28;20276;-62
2022/08/08 12:48:07;;;;;;;1.50;0.93;;;20.00;99.90;;;;;;5009406;28;20195;-62
2022/08/08 12:50:42;;;;;;;2.10;1.20;;;20.00;99.90;;;;;;5010359;28;20206;-63
2022/08/08 12:53:23;;;;;;;3.10;1.27;;;20.00;99.90;;;;;;5008872;28;20263;-63
2022/08/08 12:55:58;;;;;;;2.80;1.27;;;20.20;99.90;;;;;;5011335;28;20206;-62
2022/08/08 12:58:28;;;;;;;2.28;1.33;;;20.10;99.90;;;;;;5009893;28;20225;-62
2022/08/08 13:00:55;;;;;;;3.05;1.48;;;20.20;99.90;;;;;;4989207;28;20202;-62
2022/08/08 13:03:27;;;;;;;4.10;1.10;;;20.20;99.90;;;;;;5012270;28;20199;-63
2022/08/08 13:06:08;;;;;;;1.92;1.05;;;20.30;99.90;;;;;;5009479;28;20198;-63
2022/08/08 13:08:42;;;;;;;2.63;0.93;;;20.20;99.90;;;;;;5012482;28;20557;-62
2022/08/08 13:11:20;;;;;;;3.45;1.20;;;20.30;99.90;;;;;;5006350;28;20199;-62
2022/08/08 13:14:03;;;;;;;1.33;0.90;;;20.30;99.90;;;;;;5008485;28;20202;-62
2022/08/08 13:16:33;;;;;;;1.13;0.82;;;20.30;99.90;;;;;;4992790;28;20206;-63
2022/08/08 13:19:02;;;;;;;0.90;0.85;;;20.30;99.90;;;;;;5010094;28;20902;-62
2022/08/08 13:21:30;;;;;;;3.20;1.23;;;20.30;99.90;;;;;;5013668;28;20263;-62
2022/08/08 13:23:57;;;;;;;5.15;1.50;;;20.30;99.90;;;;;;5004989;28;20214;-63
2022/08/08 13:26:29;;;;;;;1.80;1.27;;;20.20;99.90;;;;;;5014503;28;20676;-63